sensor_id;sensor_type;location;lat;lon;timestamp;temperature;humidity
41694;DHT22;27377;50.666;9.150;2023-03-01T00:01:12;-1.60;99.90
41694;DHT22;27377;50.666;9.150;2023-03-01T00:03:38;-1.70;99.90
41694;DHT22;27377;50.666;9.150;2023-03-01T00:06:04;-1.70;99.90
41694;DHT22;27377;50.666;9.150;2023-03-01T00:08:30;-1.70;99.90
41694;DHT22;27377;50.666;9.150;2023-03-01T00:11:26;-1.70;99.90
41694;DHT22;27377;50.666;9.150;2023-03-01T00:13:54;-1.70;99.90
41694;DHT22;27377;50.666;9.150;2023-03-01T00:16:26;-1.80;99.90
41694;DHT22;27377;50.666;9.150;2023-03-01T00:18:54;-1.80;99.90
41694;DHT22;27377;50.666;9.150;2023-03-01T00:21:20;-1.90;99.90
41694;DHT22;27377;50.666;9.150;2023-03-01T00:23:48;-1.90;99.90
41694;DHT22;27377;50.666;9.150;2023-03-01T00:26:15;-1.90;99.90
41694;DHT22;27377;50.666;9.150;2023-03-01T00:28:42;-1.90;99.90
41694;DHT22;27377;50.666;9.150;2023-03-01T00:31:12;-1.90;99.90
41694;DHT22;27377;50.666;9.150;2023-03-01T00:33:38;-1.90;99.90
41694;DHT22;27377;50.666;9.150;2023-03-01T00:36:05;-1.90;99.90
41694;DHT22;27377;50.666;9.150;2023-03-01T00:38:35;-2.00;99.90
41694;DHT22;27377;50.666;9.150;2023-03-01T00:41:07;-2.00;99.90
41694;DHT22;27377;50.666;9.150;2023-03-01T00:43:34;-2.00;99.90
41694;DHT22;27377;50.666;9.150;2023-03-01T00:46:13;-2.00;99.90
41694;DHT22;27377;50.666;9.150;2023-03-01T00:48:39;-2.00;99.90
41694;DHT22;27377;50.666;9.150;2023-03-01T00:51:11;-2.00;99.90
41694;DHT22;27377;50.666;9.150;2023-03-01T00:53:37;-2.00;99.90
41694;DHT22;27377;50.666;9.150;2023-03-01T00:56:05;-2.10;99.90
41694;DHT22;27377;50.666;9.150;2023-03-01T00:58:30;-2.00;99.90
41694;DHT22;27377;50.666;9.150;2023-03-01T01:00:56;-2.00;99.90
41694;DHT22;27377;50.666;9.150;2023-03-01T01:03:22;-2.10;99.90
41694;DHT22;27377;50.666;9.150;2023-03-01T01:05:50;-2.10;99.90
41694;DHT22;27377;50.666;9.150;2023-03-01T01:08:15;-2.10;99.90
41694;DHT22;27377;50.666;9.150;2023-03-01T01:10:43;-2.10;99.90
41694;DHT22;27377;50.666;9.150;2023-03-01T01:13:09;-2.20;99.90
41694;DHT22;27377;50.666;9.150;2023-03-01T01:15:35;-2.20;99.90
41694;DHT22;27377;50.666;9.150;2023-03-01T01:18:01;-2.30;99.90
41694;DHT22;27377;50.666;9.150;2023-03-01T01:20:27;-2.30;99.90
41694;DHT22;27377;50.666;9.150;2023-03-01T01:22:53;-2.20;99.90
41694;DHT22;27377;50.666;9.150;2023-03-01T01:25:19;-2.30;99.90
41694;DHT22;27377;50.666;9.150;2023-03-01T01:27:45;-2.30;99.90
41694;DHT22;27377;50.666;9.150;2023-03-01T01:30:11;-2.30;99.90
41694;DHT22;27377;50.666;9.150;2023-03-01T01:32:36;-2.40;99.90
41694;DHT22;27377;50.666;9.150;2023-03-01T01:35:02;-2.50;99.90
41694;DHT22;27377;50.666;9.150;2023-03-01T01:37:27;-2.60;99.90
41694;DHT22;27377;50.666;9.150;2023-03-01T01:39:57;-2.60;99.90
41694;DHT22;27377;50.666;9.150;2023-03-01T01:42:24;-2.50;99.90
41694;DHT22;27377;50.666;9.150;2023-03-01T01:47:57;-2.60;99.90
41694;DHT22;27377;50.666;9.150;2023-03-01T01:50:24;-2.60;99.90
41694;DHT22;27377;50.666;9.150;2023-03-01T01:52:50;-2.70;99.90
41694;DHT22;27377;50.666;9.150;2023-03-01T01:55:22;-2.70;99.90
41694;DHT22;27377;50.666;9.150;2023-03-01T01:57:53;-2.70;99.90
41694;DHT22;27377;50.666;9.150;2023-03-01T02:00:28;-2.70;99.90
41694;DHT22;27377;50.666;9.150;2023-03-01T02:03:00;-2.70;99.90
41694;DHT22;27377;50.666;9.150;2023-03-01T02:08:17;-2.80;99.90
41694;DHT22;27377;50.666;9.150;2023-03-01T02:10:44;-2.90;99.90
41694;DHT22;27377;50.666;9.150;2023-03-01T02:13:10;-2.90;99.90
41694;DHT22;27377;50.666;9.150;2023-03-01T02:15:38;-2.80;99.90
41694;DHT22;27377;50.666;9.150;2023-03-01T02:18:05;-2.80;99.90
41694;DHT22;27377;50.666;9.150;2023-03-01T02:20:43;-2.80;99.90
41694;DHT22;27377;50.666;9.150;2023-03-01T02:23:11;-2.70;99.90
41694;DHT22;27377;50.666;9.150;2023-03-01T02:25:53;-2.70;99.90
41694;DHT22;27377;50.666;9.150;2023-03-01T02:28:29;-2.70;99.90
41694;DHT22;27377;50.666;9.150;2023-03-01T02:30:55;-2.70;99.90
41694;DHT22;27377;50.666;9.150;2023-03-01T02:33:39;-2.80;99.90
41694;DHT22;27377;50.666;9.150;2023-03-01T02:36:12;-2.90;99.90
41694;DHT22;27377;50.666;9.150;2023-03-01T02:38:41;-3.00;99.90
41694;DHT22;27377;50.666;9.150;2023-03-01T02:41:08;-3.00;99.90
41694;DHT22;27377;50.666;9.150;2023-03-01T02:43:35;-3.00;99.90
41694;DHT22;27377;50.666;9.150;2023-03-01T02:46:14;-3.00;99.90
41694;DHT22;27377;50.666;9.150;2023-03-01T02:48:46;-3.00;99.90
41694;DHT22;27377;50.666;9.150;2023-03-01T02:51:24;-2.90;99.90
41694;DHT22;27377;50.666;9.150;2023-03-01T02:56:44;-2.80;99.90
41694;DHT22;27377;50.666;9.150;2023-03-01T02:59:10;-2.80;99.90
41694;DHT22;27377;50.666;9.150;2023-03-01T03:01:36;-2.80;99.90
41694;DHT22;27377;50.666;9.150;2023-03-01T03:04:11;-2.90;99.90
41694;DHT22;27377;50.666;9.150;2023-03-01T03:06:38;-2.90;99.90
41694;DHT22;27377;50.666;9.150;2023-03-01T03:09:04;-2.90;99.90
41694;DHT22;27377;50.666;9.150;2023-03-01T03:11:30;-2.90;99.90
41694;DHT22;27377;50.666;9.150;2023-03-01T03:13:57;-3.00;99.90
41694;DHT22;27377;50.666;9.150;2023-03-01T03:16:23;-3.10;99.90
41694;DHT22;27377;50.666;9.150;2023-03-01T03:18:50;-3.10;99.90
41694;DHT22;27377;50.666;9.150;2023-03-01T03:21:15;-3.20;99.90
41694;DHT22;27377;50.666;9.150;2023-03-01T03:23:41;-3.20;99.90
41694;DHT22;27377;50.666;9.150;2023-03-01T03:26:07;-3.10;99.90
41694;DHT22;27377;50.666;9.150;2023-03-01T03:28:33;-3.10;99.90
41694;DHT22;27377;50.666;9.150;2023-03-01T03:30:59;-3.00;99.90
41694;DHT22;27377;50.666;9.150;2023-03-01T03:33:32;-3.00;99.90
41694;DHT22;27377;50.666;9.150;2023-03-01T03:35:57;-2.90;99.90
41694;DHT22;27377;50.666;9.150;2023-03-01T03:38:23;-3.00;99.90
41694;DHT22;27377;50.666;9.150;2023-03-01T03:41:07;-3.10;99.90
41694;DHT22;27377;50.666;9.150;2023-03-01T03:43:36;-3.00;99.90
41694;DHT22;27377;50.666;9.150;2023-03-01T03:46:02;-3.10;99.90
41694;DHT22;27377;50.666;9.150;2023-03-01T03:48:38;-3.00;99.90
41694;DHT22;27377;50.666;9.150;2023-03-01T03:51:05;-3.00;99.90
41694;DHT22;27377;50.666;9.150;2023-03-01T03:53:31;-3.00;99.90
41694;DHT22;27377;50.666;9.150;2023-03-01T03:55:57;-3.10;99.90
41694;DHT22;27377;50.666;9.150;2023-03-01T03:58:25;-3.10;99.90
41694;DHT22;27377;50.666;9.150;2023-03-01T04:00:53;-3.10;99.90
41694;DHT22;27377;50.666;9.150;2023-03-01T04:03:21;-3.10;99.90
41694;DHT22;27377;50.666;9.150;2023-03-01T04:05:47;-3.10;99.90
41694;DHT22;27377;50.666;9.150;2023-03-01T04:08:13;-3.20;99.90
41694;DHT22;27377;50.666;9.150;2023-03-01T04:10:41;-3.20;99.90
41694;DHT22;27377;50.666;9.150;2023-03-01T04:13:09;-3.20;99.90
41694;DHT22;27377;50.666;9.150;2023-03-01T04:15:36;-3.10;99.90
41694;DHT22;27377;50.666;9.150;2023-03-01T04:18:02;-3.20;99.90
41694;DHT22;27377;50.666;9.150;2023-03-01T04:20:30;-3.10;99.90
41694;DHT22;27377;50.666;9.150;2023-03-01T04:23:01;-3.10;99.90
41694;DHT22;27377;50.666;9.150;2023-03-01T04:25:38;-3.20;99.90
41694;DHT22;27377;50.666;9.150;2023-03-01T04:28:04;-3.20;99.90
41694;DHT22;27377;50.666;9.150;2023-03-01T04:30:30;-3.30;99.90
41694;DHT22;27377;50.666;9.150;2023-03-01T04:33:10;-3.30;99.90
41694;DHT22;27377;50.666;9.150;2023-03-01T04:35:37;-3.20;99.90
41694;DHT22;27377;50.666;9.150;2023-03-01T04:38:04;-3.20;99.90
41694;DHT22;27377;50.666;9.150;2023-03-01T04:40:30;-3.10;99.90
41694;DHT22;27377;50.666;9.150;2023-03-01T04:42:56;-3.10;99.90
41694;DHT22;27377;50.666;9.150;2023-03-01T04:45:21;-3.00;99.90
41694;DHT22;27377;50.666;9.150;2023-03-01T04:47:47;-3.00;99.90
41694;DHT22;27377;50.666;9.150;2023-03-01T04:50:15;-3.10;99.90
41694;DHT22;27377;50.666;9.150;2023-03-01T04:52:42;-3.20;99.90
41694;DHT22;27377;50.666;9.150;2023-03-01T04:55:08;-3.10;99.90
41694;DHT22;27377;50.666;9.150;2023-03-01T04:57:34;-3.20;99.90
41694;DHT22;27377;50.666;9.150;2023-03-01T05:00:00;-3.20;99.90
41694;DHT22;27377;50.666;9.150;2023-03-01T05:02:26;-3.20;99.90
41694;DHT22;27377;50.666;9.150;2023-03-01T05:04:51;-3.20;99.90
41694;DHT22;27377;50.666;9.150;2023-03-01T05:07:17;-3.20;99.90
41694;DHT22;27377;50.666;9.150;2023-03-01T05:09:46;-3.20;99.90
41694;DHT22;27377;50.666;9.150;2023-03-01T05:12:12;-3.10;99.90
41694;DHT22;27377;50.666;9.150;2023-03-01T05:14:38;-3.20;99.90
41694;DHT22;27377;50.666;9.150;2023-03-01T05:17:04;-3.30;99.90
41694;DHT22;27377;50.666;9.150;2023-03-01T05:19:30;-3.30;99.90
41694;DHT22;27377;50.666;9.150;2023-03-01T05:21:57;-3.30;99.90
41694;DHT22;27377;50.666;9.150;2023-03-01T05:24:33;-3.20;99.90
41694;DHT22;27377;50.666;9.150;2023-03-01T05:27:00;-3.30;99.90
41694;DHT22;27377;50.666;9.150;2023-03-01T05:29:27;-3.20;99.90
41694;DHT22;27377;50.666;9.150;2023-03-01T05:31:59;-3.20;99.90
41694;DHT22;27377;50.666;9.150;2023-03-01T05:34:31;-3.10;99.90
41694;DHT22;27377;50.666;9.150;2023-03-01T05:36:57;-3.20;99.90
41694;DHT22;27377;50.666;9.150;2023-03-01T05:39:24;-3.30;99.90
41694;DHT22;27377;50.666;9.150;2023-03-01T05:41:55;-3.30;99.90
41694;DHT22;27377;50.666;9.150;2023-03-01T05:44:32;-3.30;99.90
41694;DHT22;27377;50.666;9.150;2023-03-01T05:47:07;-3.30;99.90
41694;DHT22;27377;50.666;9.150;2023-03-01T05:49:35;-3.30;99.90
41694;DHT22;27377;50.666;9.150;2023-03-01T05:52:01;-3.30;99.90
41694;DHT22;27377;50.666;9.150;2023-03-01T05:54:30;-3.40;99.90
41694;DHT22;27377;50.666;9.150;2023-03-01T05:56:56;-3.40;99.90
41694;DHT22;27377;50.666;9.150;2023-03-01T05:59:21;-3.50;99.90
41694;DHT22;27377;50.666;9.150;2023-03-01T06:01:47;-3.40;99.90
41694;DHT22;27377;50.666;9.150;2023-03-01T06:04:12;-3.40;99.90
41694;DHT22;27377;50.666;9.150;2023-03-01T06:06:38;-3.30;99.90
41694;DHT22;27377;50.666;9.150;2023-03-01T06:09:07;-3.30;99.90
41694;DHT22;27377;50.666;9.150;2023-03-01T06:11:35;-3.30;99.90
41694;DHT22;27377;50.666;9.150;2023-03-01T06:14:01;-3.20;99.90
41694;DHT22;27377;50.666;9.150;2023-03-01T06:16:26;-3.20;99.90
41694;DHT22;27377;50.666;9.150;2023-03-01T06:18:52;-3.20;99.90
41694;DHT22;27377;50.666;9.150;2023-03-01T06:21:17;-3.20;99.90
41694;DHT22;27377;50.666;9.150;2023-03-01T06:23:43;-3.20;99.90
41694;DHT22;27377;50.666;9.150;2023-03-01T06:26:09;-3.10;99.90
41694;DHT22;27377;50.666;9.150;2023-03-01T06:28:36;-3.10;99.90
41694;DHT22;27377;50.666;9.150;2023-03-01T06:31:02;-3.00;99.90
41694;DHT22;27377;50.666;9.150;2023-03-01T06:33:28;-2.90;99.90
41694;DHT22;27377;50.666;9.150;2023-03-01T06:35:56;-2.80;99.90
41694;DHT22;27377;50.666;9.150;2023-03-01T06:38:23;-2.60;99.90
41694;DHT22;27377;50.666;9.150;2023-03-01T06:40:53;-2.50;99.90
41694;DHT22;27377;50.666;9.150;2023-03-01T06:43:23;-2.40;99.90
41694;DHT22;27377;50.666;9.150;2023-03-01T06:45:49;-2.40;99.90
41694;DHT22;27377;50.666;9.150;2023-03-01T06:48:14;-2.30;99.90
41694;DHT22;27377;50.666;9.150;2023-03-01T06:50:40;-2.30;99.90
41694;DHT22;27377;50.666;9.150;2023-03-01T06:53:05;-2.20;99.90
41694;DHT22;27377;50.666;9.150;2023-03-01T06:55:31;-2.20;99.90
41694;DHT22;27377;50.666;9.150;2023-03-01T06:57:58;-2.20;99.90
41694;DHT22;27377;50.666;9.150;2023-03-01T07:00:25;-2.20;99.90
41694;DHT22;27377;50.666;9.150;2023-03-01T07:02:51;-2.10;99.90
41694;DHT22;27377;50.666;9.150;2023-03-01T07:05:17;-2.10;99.90
41694;DHT22;27377;50.666;9.150;2023-03-01T07:07:43;-2.00;99.90
41694;DHT22;27377;50.666;9.150;2023-03-01T07:10:09;-2.00;99.90
41694;DHT22;27377;50.666;9.150;2023-03-01T07:12:35;-2.00;99.90
41694;DHT22;27377;50.666;9.150;2023-03-01T07:15:01;-1.90;99.90
41694;DHT22;27377;50.666;9.150;2023-03-01T07:17:26;-2.00;99.90
41694;DHT22;27377;50.666;9.150;2023-03-01T07:19:52;-1.90;99.90
41694;DHT22;27377;50.666;9.150;2023-03-01T07:22:17;-1.90;99.90
41694;DHT22;27377;50.666;9.150;2023-03-01T07:24:43;-1.90;99.90
41694;DHT22;27377;50.666;9.150;2023-03-01T07:27:09;-1.80;99.90
41694;DHT22;27377;50.666;9.150;2023-03-01T07:29:35;-1.80;99.90
41694;DHT22;27377;50.666;9.150;2023-03-01T07:32:02;-1.90;99.90
41694;DHT22;27377;50.666;9.150;2023-03-01T07:34:28;-1.90;99.90
41694;DHT22;27377;50.666;9.150;2023-03-01T07:36:53;-1.90;99.90
41694;DHT22;27377;50.666;9.150;2023-03-01T07:39:19;-1.90;99.90
41694;DHT22;27377;50.666;9.150;2023-03-01T07:41:44;-1.90;99.90
41694;DHT22;27377;50.666;9.150;2023-03-01T07:44:10;-1.90;99.90
41694;DHT22;27377;50.666;9.150;2023-03-01T07:46:36;-1.90;99.90
41694;DHT22;27377;50.666;9.150;2023-03-01T07:49:01;-1.90;99.90
41694;DHT22;27377;50.666;9.150;2023-03-01T07:51:27;-1.90;99.90
41694;DHT22;27377;50.666;9.150;2023-03-01T07:53:52;-1.90;99.90
41694;DHT22;27377;50.666;9.150;2023-03-01T07:56:18;-1.90;99.90
41694;DHT22;27377;50.666;9.150;2023-03-01T07:58:45;-1.80;99.90
41694;DHT22;27377;50.666;9.150;2023-03-01T08:01:13;-1.80;99.90
41694;DHT22;27377;50.666;9.150;2023-03-01T08:03:39;-1.70;99.90
41694;DHT22;27377;50.666;9.150;2023-03-01T08:06:07;-1.60;99.90
41694;DHT22;27377;50.666;9.150;2023-03-01T08:08:33;-1.50;99.90
41694;DHT22;27377;50.666;9.150;2023-03-01T08:11:00;-1.40;99.90
41694;DHT22;27377;50.666;9.150;2023-03-01T08:13:26;-1.40;99.90
41694;DHT22;27377;50.666;9.150;2023-03-01T08:15:52;-1.40;99.90
41694;DHT22;27377;50.666;9.150;2023-03-01T08:18:19;-1.30;99.90
41694;DHT22;27377;50.666;9.150;2023-03-01T08:20:45;-1.20;99.90
41694;DHT22;27377;50.666;9.150;2023-03-01T08:23:11;-1.20;99.90
41694;DHT22;27377;50.666;9.150;2023-03-01T08:25:38;-1.10;99.90
41694;DHT22;27377;50.666;9.150;2023-03-01T08:28:03;-1.10;99.90
41694;DHT22;27377;50.666;9.150;2023-03-01T08:30:29;-1.00;99.90
41694;DHT22;27377;50.666;9.150;2023-03-01T08:32:55;-0.90;99.90
41694;DHT22;27377;50.666;9.150;2023-03-01T08:35:21;-0.80;99.90
41694;DHT22;27377;50.666;9.150;2023-03-01T08:37:47;-0.70;99.90
41694;DHT22;27377;50.666;9.150;2023-03-01T08:40:13;-0.70;99.90
41694;DHT22;27377;50.666;9.150;2023-03-01T08:42:39;-0.60;99.90
41694;DHT22;27377;50.666;9.150;2023-03-01T08:45:06;-0.60;99.90
41694;DHT22;27377;50.666;9.150;2023-03-01T08:47:32;-0.60;99.90
41694;DHT22;27377;50.666;9.150;2023-03-01T08:50:02;-0.50;99.90
41694;DHT22;27377;50.666;9.150;2023-03-01T08:52:27;-0.40;99.90
41694;DHT22;27377;50.666;9.150;2023-03-01T08:54:55;-0.30;99.90
41694;DHT22;27377;50.666;9.150;2023-03-01T08:57:21;-0.20;99.90
41694;DHT22;27377;50.666;9.150;2023-03-01T08:59:47;-0.20;99.90
41694;DHT22;27377;50.666;9.150;2023-03-01T09:02:15;-0.20;99.90
41694;DHT22;27377;50.666;9.150;2023-03-01T09:04:41;-0.20;99.90
41694;DHT22;27377;50.666;9.150;2023-03-01T09:07:07;-0.10;99.90
41694;DHT22;27377;50.666;9.150;2023-03-01T09:09:33;0.00;99.90
41694;DHT22;27377;50.666;9.150;2023-03-01T09:11:59;0.00;99.90
41694;DHT22;27377;50.666;9.150;2023-03-01T09:14:24;0.00;99.90
41694;DHT22;27377;50.666;9.150;2023-03-01T09:16:50;0.00;99.90
41694;DHT22;27377;50.666;9.150;2023-03-01T09:19:16;0.10;99.90
41694;DHT22;27377;50.666;9.150;2023-03-01T09:21:41;0.10;99.90
41694;DHT22;27377;50.666;9.150;2023-03-01T09:24:19;0.10;99.90
41694;DHT22;27377;50.666;9.150;2023-03-01T09:26:44;0.20;99.90
41694;DHT22;27377;50.666;9.150;2023-03-01T09:29:13;0.20;99.90
41694;DHT22;27377;50.666;9.150;2023-03-01T09:31:39;0.30;99.90
41694;DHT22;27377;50.666;9.150;2023-03-01T09:34:06;0.30;99.90
41694;DHT22;27377;50.666;9.150;2023-03-01T09:36:32;0.30;99.90
41694;DHT22;27377;50.666;9.150;2023-03-01T09:38:58;0.40;99.90
41694;DHT22;27377;50.666;9.150;2023-03-01T09:44:30;0.50;99.90
41694;DHT22;27377;50.666;9.150;2023-03-01T09:46:58;0.50;99.90
41694;DHT22;27377;50.666;9.150;2023-03-01T09:49:35;0.60;99.90
41694;DHT22;27377;50.666;9.150;2023-03-01T09:52:19;0.60;99.90
41694;DHT22;27377;50.666;9.150;2023-03-01T09:54:48;0.70;99.90
41694;DHT22;27377;50.666;9.150;2023-03-01T09:57:20;0.70;99.90
41694;DHT22;27377;50.666;9.150;2023-03-01T10:00:22;0.80;99.90
41694;DHT22;27377;50.666;9.150;2023-03-01T10:03:31;0.80;99.90
41694;DHT22;27377;50.666;9.150;2023-03-01T10:06:06;0.90;99.90
41694;DHT22;27377;50.666;9.150;2023-03-01T10:16:43;0.90;99.90
41694;DHT22;27377;50.666;9.150;2023-03-01T10:19:22;1.00;99.90
41694;DHT22;27377;50.666;9.150;2023-03-01T10:21:49;1.00;99.90
41694;DHT22;27377;50.666;9.150;2023-03-01T10:24:18;1.10;99.90
41694;DHT22;27377;50.666;9.150;2023-03-01T10:26:54;1.10;99.90
41694;DHT22;27377;50.666;9.150;2023-03-01T10:29:29;1.20;99.90
41694;DHT22;27377;50.666;9.150;2023-03-01T10:31:57;1.20;99.90
41694;DHT22;27377;50.666;9.150;2023-03-01T10:34:33;1.30;99.90
41694;DHT22;27377;50.666;9.150;2023-03-01T10:37:18;1.30;99.90
41694;DHT22;27377;50.666;9.150;2023-03-01T10:42:35;1.30;99.90
41694;DHT22;27377;50.666;9.150;2023-03-01T10:45:30;1.40;99.90
41694;DHT22;27377;50.666;9.150;2023-03-01T10:50:44;1.60;99.90
41694;DHT22;27377;50.666;9.150;2023-03-01T10:53:37;1.70;99.90
41694;DHT22;27377;50.666;9.150;2023-03-01T10:56:10;1.70;99.90
41694;DHT22;27377;50.666;9.150;2023-03-01T10:59:04;1.80;99.90
41694;DHT22;27377;50.666;9.150;2023-03-01T11:01:33;1.80;99.90
41694;DHT22;27377;50.666;9.150;2023-03-01T11:04:11;1.70;99.90
41694;DHT22;27377;50.666;9.150;2023-03-01T11:06:41;1.80;99.90
41694;DHT22;27377;50.666;9.150;2023-03-01T11:09:21;1.90;99.90
41694;DHT22;27377;50.666;9.150;2023-03-01T11:11:56;1.90;99.90
41694;DHT22;27377;50.666;9.150;2023-03-01T11:14:24;2.10;99.90
41694;DHT22;27377;50.666;9.150;2023-03-01T11:17:02;2.00;99.90
41694;DHT22;27377;50.666;9.150;2023-03-01T11:19:29;2.00;99.90
41694;DHT22;27377;50.666;9.150;2023-03-01T11:27:32;2.00;99.90
41694;DHT22;27377;50.666;9.150;2023-03-01T11:35:30;2.30;99.90
41694;DHT22;27377;50.666;9.150;2023-03-01T11:40:35;2.20;99.90
41694;DHT22;27377;50.666;9.150;2023-03-01T11:43:24;2.20;99.90
41694;DHT22;27377;50.666;9.150;2023-03-01T11:46:11;2.20;99.90
41694;DHT22;27377;50.666;9.150;2023-03-01T11:59:59;2.30;99.90
41694;DHT22;27377;50.666;9.150;2023-03-01T12:02:43;2.40;99.90
41694;DHT22;27377;50.666;9.150;2023-03-01T12:08:41;2.50;99.90
41694;DHT22;27377;50.666;9.150;2023-03-01T12:11:37;2.60;99.90
41694;DHT22;27377;50.666;9.150;2023-03-01T12:20:32;2.70;99.90
41694;DHT22;27377;50.666;9.150;2023-03-01T12:34:55;2.70;99.90
41694;DHT22;27377;50.666;9.150;2023-03-01T12:43:41;2.90;99.90
41694;DHT22;27377;50.666;9.150;2023-03-01T12:46:33;2.90;99.90
41694;DHT22;27377;50.666;9.150;2023-03-01T12:49:16;2.90;99.90
41694;DHT22;27377;50.666;9.150;2023-03-01T12:51:55;3.00;99.90
41694;DHT22;27377;50.666;9.150;2023-03-01T12:54:27;3.00;99.90
41694;DHT22;27377;50.666;9.150;2023-03-01T12:56:54;3.00;99.90
41694;DHT22;27377;50.666;9.150;2023-03-01T12:59:38;3.00;99.90
41694;DHT22;27377;50.666;9.150;2023-03-01T13:02:21;3.00;99.90
41694;DHT22;27377;50.666;9.150;2023-03-01T13:07:50;3.10;99.90
41694;DHT22;27377;50.666;9.150;2023-03-01T13:13:26;3.20;99.90
41694;DHT22;27377;50.666;9.150;2023-03-01T13:15:53;3.20;99.90
41694;DHT22;27377;50.666;9.150;2023-03-01T13:20:50;3.30;99.90
41694;DHT22;27377;50.666;9.150;2023-03-01T13:26:05;3.20;99.90
41694;DHT22;27377;50.666;9.150;2023-03-01T13:31:10;3.20;99.90
41694;DHT22;27377;50.666;9.150;2023-03-01T13:33:59;3.30;99.90
41694;DHT22;27377;50.666;9.150;2023-03-01T13:46:51;3.50;99.90
41694;DHT22;27377;50.666;9.150;2023-03-01T13:49:20;3.60;99.90
41694;DHT22;27377;50.666;9.150;2023-03-01T13:51:47;3.60;99.90
41694;DHT22;27377;50.666;9.150;2023-03-01T13:54:15;3.60;99.90
41694;DHT22;27377;50.666;9.150;2023-03-01T13:56:42;3.50;99.90
41694;DHT22;27377;50.666;9.150;2023-03-01T13:59:17;3.50;99.90
41694;DHT22;27377;50.666;9.150;2023-03-01T14:01:43;3.50;99.90
41694;DHT22;27377;50.666;9.150;2023-03-01T14:04:41;3.50;99.90
41694;DHT22;27377;50.666;9.150;2023-03-01T14:07:12;3.50;99.90
41694;DHT22;27377;50.666;9.150;2023-03-01T14:09:41;3.50;99.90
41694;DHT22;27377;50.666;9.150;2023-03-01T14:12:26;3.50;99.90
41694;DHT22;27377;50.666;9.150;2023-03-01T14:15:22;3.60;99.90
41694;DHT22;27377;50.666;9.150;2023-03-01T14:18:19;3.70;99.90
41694;DHT22;27377;50.666;9.150;2023-03-01T14:20:46;3.60;99.90
41694;DHT22;27377;50.666;9.150;2023-03-01T14:23:19;3.60;99.90
41694;DHT22;27377;50.666;9.150;2023-03-01T14:25:51;3.60;99.90
41694;DHT22;27377;50.666;9.150;2023-03-01T14:28:27;3.60;99.90
41694;DHT22;27377;50.666;9.150;2023-03-01T14:30:58;3.60;99.90
41694;DHT22;27377;50.666;9.150;2023-03-01T14:33:34;3.60;99.90
41694;DHT22;27377;50.666;9.150;2023-03-01T14:36:05;3.70;99.90
41694;DHT22;27377;50.666;9.150;2023-03-01T14:38:37;3.60;99.70
41694;DHT22;27377;50.666;9.150;2023-03-01T14:41:26;3.70;99.80
41694;DHT22;27377;50.666;9.150;2023-03-01T14:43:56;3.70;99.90
41694;DHT22;27377;50.666;9.150;2023-03-01T14:46:26;3.70;99.30
41694;DHT22;27377;50.666;9.150;2023-03-01T14:49:06;3.80;99.60
41694;DHT22;27377;50.666;9.150;2023-03-01T14:52:04;3.70;99.90
41694;DHT22;27377;50.666;9.150;2023-03-01T14:54:37;3.80;98.90
41694;DHT22;27377;50.666;9.150;2023-03-01T14:57:06;3.80;99.00
41694;DHT22;27377;50.666;9.150;2023-03-01T14:59:35;3.70;98.40
41694;DHT22;27377;50.666;9.150;2023-03-01T15:02:02;3.80;98.50
41694;DHT22;27377;50.666;9.150;2023-03-01T15:04:31;3.70;98.30
41694;DHT22;27377;50.666;9.150;2023-03-01T15:07:04;3.70;98.10
41694;DHT22;27377;50.666;9.150;2023-03-01T15:09:48;3.70;98.40
41694;DHT22;27377;50.666;9.150;2023-03-01T15:14:58;3.80;98.50
41694;DHT22;27377;50.666;9.150;2023-03-01T15:20:01;3.80;98.80
41694;DHT22;27377;50.666;9.150;2023-03-01T15:22:30;3.70;98.80
41694;DHT22;27377;50.666;9.150;2023-03-01T15:24:56;3.80;99.10
41694;DHT22;27377;50.666;9.150;2023-03-01T15:27:33;3.80;99.10
41694;DHT22;27377;50.666;9.150;2023-03-01T15:30:00;3.70;99.30
41694;DHT22;27377;50.666;9.150;2023-03-01T15:32:35;3.80;99.40
41694;DHT22;27377;50.666;9.150;2023-03-01T15:37:59;3.80;99.30
41694;DHT22;27377;50.666;9.150;2023-03-01T15:40:30;3.70;99.40
41694;DHT22;27377;50.666;9.150;2023-03-01T15:43:02;3.70;99.40
41694;DHT22;27377;50.666;9.150;2023-03-01T15:45:30;3.70;99.40
41694;DHT22;27377;50.666;9.150;2023-03-01T15:48:20;3.70;99.40
41694;DHT22;27377;50.666;9.150;2023-03-01T15:50:54;3.70;99.30
41694;DHT22;27377;50.666;9.150;2023-03-01T15:53:20;3.70;99.50
41694;DHT22;27377;50.666;9.150;2023-03-01T15:55:46;3.70;99.50
41694;DHT22;27377;50.666;9.150;2023-03-01T15:58:23;3.70;99.30
41694;DHT22;27377;50.666;9.150;2023-03-01T16:00:50;3.70;99.40
41694;DHT22;27377;50.666;9.150;2023-03-01T16:03:21;3.60;99.30
41694;DHT22;27377;50.666;9.150;2023-03-01T16:05:51;3.60;99.40
41694;DHT22;27377;50.666;9.150;2023-03-01T16:08:18;3.60;99.20
41694;DHT22;27377;50.666;9.150;2023-03-01T16:10:44;3.60;98.90
41694;DHT22;27377;50.666;9.150;2023-03-01T16:13:11;3.60;99.00
41694;DHT22;27377;50.666;9.150;2023-03-01T16:15:37;3.60;98.70
41694;DHT22;27377;50.666;9.150;2023-03-01T16:18:04;3.60;98.80
41694;DHT22;27377;50.666;9.150;2023-03-01T16:20:31;3.50;98.90
41694;DHT22;27377;50.666;9.150;2023-03-01T16:22:59;3.60;99.30
41694;DHT22;27377;50.666;9.150;2023-03-01T16:25:27;3.50;99.20
41694;DHT22;27377;50.666;9.150;2023-03-01T16:27:53;3.50;98.90
41694;DHT22;27377;50.666;9.150;2023-03-01T16:30:21;3.50;99.20
41694;DHT22;27377;50.666;9.150;2023-03-01T16:32:48;3.40;99.30
41694;DHT22;27377;50.666;9.150;2023-03-01T16:35:17;3.40;98.80
41694;DHT22;27377;50.666;9.150;2023-03-01T16:37:43;3.40;99.10
41694;DHT22;27377;50.666;9.150;2023-03-01T16:40:20;3.40;99.30
41694;DHT22;27377;50.666;9.150;2023-03-01T16:42:50;3.30;99.40
41694;DHT22;27377;50.666;9.150;2023-03-01T16:45:17;3.30;99.70
41694;DHT22;27377;50.666;9.150;2023-03-01T16:47:42;3.30;99.70
41694;DHT22;27377;50.666;9.150;2023-03-01T16:50:08;3.20;99.60
41694;DHT22;27377;50.666;9.150;2023-03-01T16:52:34;3.20;99.60
41694;DHT22;27377;50.666;9.150;2023-03-01T16:55:00;3.10;99.50
41694;DHT22;27377;50.666;9.150;2023-03-01T16:57:27;3.10;99.70
41694;DHT22;27377;50.666;9.150;2023-03-01T16:59:52;3.10;99.60
41694;DHT22;27377;50.666;9.150;2023-03-01T17:02:20;3.10;99.60
41694;DHT22;27377;50.666;9.150;2023-03-01T17:04:53;3.00;99.60
41694;DHT22;27377;50.666;9.150;2023-03-01T17:07:19;2.90;99.30
41694;DHT22;27377;50.666;9.150;2023-03-01T17:09:45;2.90;99.80
41694;DHT22;27377;50.666;9.150;2023-03-01T17:12:14;2.90;99.70
41694;DHT22;27377;50.666;9.150;2023-03-01T17:14:40;2.90;99.50
41694;DHT22;27377;50.666;9.150;2023-03-01T17:17:07;2.90;99.60
41694;DHT22;27377;50.666;9.150;2023-03-01T17:19:33;2.90;99.60
41694;DHT22;27377;50.666;9.150;2023-03-01T17:22:03;2.90;99.50
41694;DHT22;27377;50.666;9.150;2023-03-01T17:24:35;2.90;99.70
41694;DHT22;27377;50.666;9.150;2023-03-01T17:27:02;2.80;99.80
41694;DHT22;27377;50.666;9.150;2023-03-01T17:29:27;2.80;99.70
41694;DHT22;27377;50.666;9.150;2023-03-01T17:31:53;2.80;99.70
41694;DHT22;27377;50.666;9.150;2023-03-01T17:34:21;2.70;99.90
41694;DHT22;27377;50.666;9.150;2023-03-01T17:36:46;2.70;99.90
41694;DHT22;27377;50.666;9.150;2023-03-01T17:39:15;2.70;99.90
41694;DHT22;27377;50.666;9.150;2023-03-01T17:41:41;2.70;99.90
41694;DHT22;27377;50.666;9.150;2023-03-01T17:44:07;2.70;99.90